Fairbanks, Indiana
Current Conditions -  °F | °C
As of 3:15 AM on Thursday 27 Nov 2014 (Local Time) from KRSV Reporting Station
Overcast Overcast  
Wind Chill: 21°   Ceiling: 6000
Heat Index: 30°   Visibility: 10mi
Dew Point: 26°   Wind: 12mph
Humidity: 85%   Direction: 360°N
Pressure: 30.22"   Gusts: NA
Location:  39.22°N, 87.52°W
Report Text: KRSV 270815Z AUTO 36010KT 10SM OVC060 M01/M03 A3022 RMK AO2 T10111033
Loading
Personal Weather Stations






























Interactive Weather Map New forecast layout! Learn more

10-Day Weather Forecast

Advertisements
Track Severe Weather on mobile